PWSweather.com
Personal Weather Stations
Station Observations
KTXPLANO60
Highlands Of Russell Park, Plano, TX 75025

Highlands Of Russell ParkPlano, TX 75025

Lat: 33.10431671, Lon: -96.75176239

Elevation: 761

Station Type: Davis Wireless VP2 Plus

http://www.planoweather.com

Latest ConditionsUpdated 7:50:01 PM CST Saturday, Feb 23, 2019
Currently Today's Max Today's Min Today's Average
Temperature 52.9°F11.6°C 67.8°F19.9°C 48.0°F8.9°C 56.9°F13.8°C
Dew Point 35.7°F2.1°C 53.2°F11.8°C 28.1°F-2.2°C 40.2°F4.6°C
Winds 17.3 mph W27.8 kmh W 24.2 mph -38.9 kmh - - 11.1 mph 17.9 kmh
Wind Gusts 27.6 mph44.4 kmh 36.8 mph59.2 kmh - -
Humidity 52% 93% 23% 62%
Pressure 29.96 in1014.6 mb 29.96 in1014.6 mb 29.73 in1006.8 mb -
Precipitation - 0.07 in1.8 mm - -
Hour Temp Dew Point Humidity Winds Wind Gusts Pressure Precip Precip Rate Daily Precip Total
07:50 PM 52.9°F11.6°C 35.7°F2.1°C 52% 17.3 mph W27.8 kmh W 27.6 mph44.4 kmh 29.96 in1014.6 mb - 0.00 in0.0 mm 0.07 in1.8 mm
07:40 PM 53.4°F11.9°C 35.8°F2.1°C 51% 15.0 mph WNW24.1 kmh WNW 24.2 mph38.9 kmh 29.95 in1014.2 mb - 0.00 in0.0 mm 0.07 in1.8 mm
07:30 PM 54.2°F12.3°C 35.9°F2.2°C 50% 16.1 mph W25.9 kmh W 23.0 mph37.0 kmh 29.94 in1013.9 mb - 0.00 in0.0 mm 0.07 in1.8 mm
07:20 PM 54.8°F12.7°C 35.5°F1.9°C 48% 24.2 mph W38.9 kmh W 34.5 mph55.5 kmh 29.92 in1013.2 mb - 0.00 in0.0 mm 0.07 in1.8 mm
07:10 PM 55.6°F13.1°C 36.2°F2.3°C 48% 20.7 mph W33.3 kmh W 28.8 mph46.3 kmh 29.92 in1013.2 mb - 0.00 in0.0 mm 0.07 in1.8 mm
07:00 PM 56.6°F13.7°C 36.6°F2.6°C 47% 23.0 mph W37.0 kmh W 36.8 mph59.2 kmh 29.90 in1012.5 mb - 0.00 in0.0 mm 0.07 in1.8 mm
06:50 PM 57.8°F14.3°C 37.1°F2.8°C 46% 18.4 mph W29.6 kmh W 26.5 mph42.6 kmh 29.89 in1012.2 mb - 0.00 in0.0 mm 0.07 in1.8 mm
06:40 PM 59.7°F15.4°C 37.2°F2.9°C 43% 16.1 mph WNW25.9 kmh WNW 31.1 mph50.1 kmh 29.88 in1011.9 mb - 0.00 in0.0 mm 0.07 in1.8 mm
06:30 PM 61.8°F16.6°C 36.6°F2.6°C 39% 19.6 mph WNW31.5 kmh WNW 25.3 mph40.7 kmh 29.85 in1010.8 mb - 0.00 in0.0 mm 0.07 in1.8 mm
06:20 PM 63.5°F17.5°C 35.3°F1.8°C 35% 18.4 mph W29.6 kmh W 26.5 mph42.6 kmh 29.84 in1010.5 mb - 0.00 in0.0 mm 0.07 in1.8 mm
06:10 PM 64.5°F18.1°C 30.6°F-0.8°C 28% 15.0 mph WSW24.1 kmh WSW 21.9 mph35.2 kmh 29.82 in1009.8 mb - 0.00 in0.0 mm 0.07 in1.8 mm
06:00 PM 64.9°F18.3°C 30.1°F-1.1°C 27% 12.7 mph WSW20.4 kmh WSW 21.9 mph35.2 kmh 29.82 in1009.8 mb - 0.00 in0.0 mm 0.07 in1.8 mm
05:50 PM 65.2°F18.4°C 30.3°F-0.9°C 27% 12.7 mph WSW20.4 kmh WSW 20.7 mph33.3 kmh 29.81 in1009.5 mb - 0.00 in0.0 mm 0.07 in1.8 mm
05:40 PM 65.6°F18.7°C 29.7°F-1.3°C 26% 16.1 mph WSW25.9 kmh WSW 23.0 mph37.0 kmh 29.81 in1009.5 mb - 0.00 in0.0 mm 0.07 in1.8 mm
05:30 PM 65.9°F18.8°C 30.0°F-1.1°C 26% 12.7 mph SW20.4 kmh SW 21.9 mph35.2 kmh 29.80 in1009.1 mb - 0.00 in0.0 mm 0.07 in1.8 mm
05:20 PM 66.2°F19.0°C 29.3°F-1.5°C 25% 17.3 mph SW27.8 kmh SW 27.6 mph44.4 kmh 29.79 in1008.8 mb - 0.00 in0.0 mm 0.07 in1.8 mm
05:10 PM 66.5°F19.2°C 29.6°F-1.3°C 25% 17.3 mph SW27.8 kmh SW 25.3 mph40.7 kmh 29.79 in1008.8 mb - 0.00 in0.0 mm 0.07 in1.8 mm
05:00 PM 66.7°F19.3°C 28.7°F-1.8°C 24% 15.0 mph SW24.1 kmh SW 24.2 mph38.9 kmh 29.78 in1008.5 mb - 0.00 in0.0 mm 0.07 in1.8 mm
04:50 PM 67.2°F19.6°C 30.2°F-1.0°C 25% 19.6 mph WSW31.5 kmh WSW 26.5 mph42.6 kmh 29.78 in1008.5 mb - 0.00 in0.0 mm 0.07 in1.8 mm
04:40 PM 67.8°F19.9°C 30.7°F-0.7°C 25% 16.1 mph WSW25.9 kmh WSW 24.2 mph38.9 kmh 29.77 in1008.1 mb - 0.00 in0.0 mm 0.07 in1.8 mm
04:30 PM 67.8°F19.9°C 29.7°F-1.3°C 24% 16.1 mph SW25.9 kmh SW 21.9 mph35.2 kmh 29.77 in1008.1 mb - 0.00 in0.0 mm 0.07 in1.8 mm
04:20 PM 67.6°F19.8°C 28.5°F-1.9°C 23% 17.3 mph SW27.8 kmh SW 25.3 mph40.7 kmh 29.77 in1008.1 mb - 0.00 in0.0 mm 0.07 in1.8 mm
04:10 PM 67.8°F19.9°C 29.7°F-1.3°C 24% 15.0 mph WSW24.1 kmh WSW 16.1 mph25.9 kmh 29.76 in1007.8 mb - 0.00 in0.0 mm 0.07 in1.8 mm
04:00 PM 67.6°F19.8°C 28.4°F-2.0°C 23% 17.3 mph WSW27.8 kmh WSW 31.1 mph50.1 kmh 29.75 in1007.5 mb - 0.00 in0.0 mm 0.07 in1.8 mm
03:50 PM 67.2°F19.6°C 29.2°F-1.6°C 24% 11.5 mph SW18.5 kmh SW 20.7 mph33.3 kmh 29.75 in1007.5 mb - 0.00 in0.0 mm 0.07 in1.8 mm
03:40 PM 67.4°F19.7°C 28.3°F-2.1°C 23% 16.1 mph SW25.9 kmh SW 21.9 mph35.2 kmh 29.75 in1007.5 mb - 0.00 in0.0 mm 0.07 in1.8 mm
03:30 PM 67.4°F19.7°C 30.3°F-0.9°C 25% 13.8 mph SW22.2 kmh SW 18.4 mph29.6 kmh 29.75 in1007.5 mb - 0.00 in0.0 mm 0.07 in1.8 mm
03:20 PM 67.4°F19.7°C 30.3°F-0.9°C 25% 18.4 mph SW29.6 kmh SW 26.5 mph42.6 kmh 29.75 in1007.5 mb - 0.00 in0.0 mm 0.07 in1.8 mm
03:10 PM 67.2°F19.6°C 30.2°F-1.0°C 25% 21.9 mph SSW35.2 kmh SSW 28.8 mph46.3 kmh 29.75 in1007.5 mb - 0.00 in0.0 mm 0.07 in1.8 mm
03:00 PM 67.2°F19.6°C 30.2°F-1.0°C 25% 12.7 mph SW20.4 kmh SW 17.3 mph27.8 kmh 29.74 in1007.1 mb - 0.00 in0.0 mm 0.07 in1.8 mm
02:50 PM 67.3°F19.6°C 29.3°F-1.5°C 24% 16.1 mph SW25.9 kmh SW 27.6 mph44.4 kmh 29.74 in1007.1 mb - 0.00 in0.0 mm 0.07 in1.8 mm
02:40 PM 66.5°F19.2°C 29.5°F-1.4°C 25% 12.7 mph SW20.4 kmh SW 21.9 mph35.2 kmh 29.74 in1007.1 mb - 0.00 in0.0 mm 0.07 in1.8 mm
02:30 PM 67.0°F19.4°C 30.0°F-1.1°C 25% 16.1 mph SW25.9 kmh SW 25.3 mph40.7 kmh 29.74 in1007.1 mb - 0.00 in0.0 mm 0.07 in1.8 mm
02:20 PM 66.5°F19.2°C 28.6°F-1.9°C 24% 18.4 mph SW29.6 kmh SW 26.5 mph42.6 kmh 29.75 in1007.5 mb - 0.00 in0.0 mm 0.07 in1.8 mm
02:10 PM 66.5°F19.2°C 28.6°F-1.9°C 24% 17.3 mph SW27.8 kmh SW 24.2 mph38.9 kmh 29.74 in1007.1 mb - 0.00 in0.0 mm 0.07 in1.8 mm
02:00 PM 66.4°F19.1°C 28.5°F-1.9°C 24% 16.1 mph SW25.9 kmh SW 21.9 mph35.2 kmh 29.74 in1007.1 mb - 0.00 in0.0 mm 0.07 in1.8 mm
01:50 PM 66.6°F19.2°C 29.7°F-1.3°C 25% 16.1 mph SW25.9 kmh SW 34.5 mph55.5 kmh 29.74 in1007.1 mb - 0.00 in0.0 mm 0.07 in1.8 mm
01:40 PM 66.0°F18.9°C 28.1°F-2.2°C 24% 11.5 mph SW18.5 kmh SW 20.7 mph33.3 kmh 29.75 in1007.5 mb - 0.00 in0.0 mm 0.07 in1.8 mm
01:30 PM 66.0°F18.9°C 28.2°F-2.1°C 24% 18.4 mph SW29.6 kmh SW 23.0 mph37.0 kmh 29.75 in1007.5 mb - 0.00 in0.0 mm 0.07 in1.8 mm
01:20 PM 66.0°F18.9°C 30.1°F-1.1°C 26% 15.0 mph SW24.1 kmh SW 25.3 mph40.7 kmh 29.75 in1007.5 mb - 0.00 in0.0 mm 0.07 in1.8 mm
01:10 PM 65.8°F18.8°C 29.9°F-1.2°C 26% 13.8 mph SW22.2 kmh SW 21.9 mph35.2 kmh 29.75 in1007.5 mb - 0.00 in0.0 mm 0.07 in1.8 mm
01:00 PM 65.8°F18.8°C 31.8°F-0.1°C 28% 19.6 mph SW31.5 kmh SW 34.5 mph55.5 kmh 29.75 in1007.5 mb - 0.00 in0.0 mm 0.07 in1.8 mm
12:50 PM 65.2°F18.4°C 31.2°F-0.4°C 28% 12.7 mph SW20.4 kmh SW 31.1 mph50.1 kmh 29.75 in1007.5 mb - 0.00 in0.0 mm 0.07 in1.8 mm
12:40 PM 64.7°F18.2°C 30.8°F-0.7°C 28% 12.7 mph SW20.4 kmh SW 21.9 mph35.2 kmh 29.76 in1007.8 mb - 0.00 in0.0 mm 0.07 in1.8 mm
12:30 PM 64.5°F18.1°C 32.4°F0.2°C 30% 11.5 mph SW18.5 kmh SW 24.2 mph38.9 kmh 29.76 in1007.8 mb - 0.00 in0.0 mm 0.07 in1.8 mm
12:20 PM 64.5°F18.1°C 32.3°F0.2°C 30% 10.4 mph SW16.7 kmh SW 21.9 mph35.2 kmh 29.76 in1007.8 mb - 0.00 in0.0 mm 0.07 in1.8 mm
12:10 PM 64.0°F17.8°C 32.7°F0.4°C 31% 17.3 mph SW27.8 kmh SW 25.3 mph40.7 kmh 29.77 in1008.1 mb - 0.00 in0.0 mm 0.07 in1.8 mm
12:00 PM 63.5°F17.5°C 33.8°F1.0°C 33% 15.0 mph SW24.1 kmh SW 24.2 mph38.9 kmh 29.77 in1008.1 mb - 0.00 in0.0 mm 0.07 in1.8 mm
11:50 AM 62.9°F17.2°C 33.4°F0.8°C 33% 15.0 mph WSW24.1 kmh WSW 25.3 mph40.7 kmh 29.77 in1008.1 mb - 0.00 in0.0 mm 0.07 in1.8 mm
11:40 AM 62.6°F17.0°C 35.2°F1.8°C 36% 15.0 mph WSW24.1 kmh WSW 21.9 mph35.2 kmh 29.78 in1008.5 mb - 0.00 in0.0 mm 0.07 in1.8 mm
11:30 AM 61.9°F16.6°C 36.7°F2.6°C 39% 12.7 mph SW20.4 kmh SW 19.6 mph31.5 kmh 29.78 in1008.5 mb - 0.00 in0.0 mm 0.07 in1.8 mm
11:20 AM 61.2°F16.2°C 35.4°F1.9°C 38% 18.4 mph WSW29.6 kmh WSW 25.3 mph40.7 kmh 29.79 in1008.8 mb - 0.00 in0.0 mm 0.07 in1.8 mm
11:10 AM 60.7°F15.9°C 36.2°F2.3°C 40% 12.7 mph SW20.4 kmh SW 23.0 mph37.0 kmh 29.79 in1008.8 mb - 0.00 in0.0 mm 0.07 in1.8 mm
11:00 AM 60.7°F15.9°C 37.5°F3.1°C 42% 10.4 mph WSW16.7 kmh WSW 13.8 mph22.2 kmh 29.79 in1008.8 mb - 0.00 in0.0 mm 0.07 in1.8 mm
10:50 AM 59.9°F15.5°C 37.9°F3.3°C 44% 19.6 mph WSW31.5 kmh WSW 29.9 mph48.1 kmh 29.78 in1008.5 mb - 0.00 in0.0 mm 0.07 in1.8 mm
10:40 AM 60.0°F15.6°C 38.0°F3.3°C 44% 10.4 mph WSW16.7 kmh WSW 25.3 mph40.7 kmh 29.79 in1008.8 mb - 0.00 in0.0 mm 0.07 in1.8 mm
10:30 AM 59.2°F15.1°C 37.9°F3.3°C 45% 13.8 mph WSW22.2 kmh WSW 24.2 mph38.9 kmh 29.79 in1008.8 mb - 0.00 in0.0 mm 0.07 in1.8 mm
10:20 AM 59.4°F15.2°C 39.1°F3.9°C 47% 17.3 mph SW27.8 kmh SW 23.0 mph37.0 kmh 29.78 in1008.5 mb - 0.00 in0.0 mm 0.07 in1.8 mm
10:10 AM 59.2°F15.1°C 43.5°F6.4°C 56% 15.0 mph WSW24.1 kmh WSW 27.6 mph44.4 kmh 29.78 in1008.5 mb - 0.00 in0.0 mm 0.07 in1.8 mm
10:00 AM 58.5°F14.7°C 46.7°F8.2°C 65% 11.5 mph SW18.5 kmh SW 19.6 mph31.5 kmh 29.78 in1008.5 mb - 0.00 in0.0 mm 0.07 in1.8 mm
09:50 AM 58.2°F14.6°C 47.7°F8.7°C 68% 12.7 mph SW20.4 kmh SW 21.9 mph35.2 kmh 29.79 in1008.8 mb - 0.00 in0.0 mm 0.07 in1.8 mm
09:40 AM 57.9°F14.4°C 50.0°F10.0°C 75% 9.2 mph SW14.8 kmh SW 13.8 mph22.2 kmh 29.79 in1008.8 mb - 0.00 in0.0 mm 0.07 in1.8 mm
09:30 AM 56.7°F13.7°C 53.2°F11.8°C 88% 6.9 mph SW11.1 kmh SW 12.7 mph20.4 kmh 29.78 in1008.5 mb - 0.00 in0.0 mm 0.07 in1.8 mm
09:20 AM 54.9°F12.7°C 52.9°F11.6°C 93% 12.7 mph SW20.4 kmh SW 23.0 mph37.0 kmh 29.79 in1008.8 mb - 0.00 in0.0 mm 0.07 in1.8 mm
09:10 AM 53.3°F11.8°C 51.3°F10.7°C 93% 8.1 mph SW13.0 kmh SW 11.5 mph18.5 kmh 29.79 in1008.8 mb - 0.00 in0.0 mm 0.07 in1.8 mm
09:00 AM 53.1°F11.7°C 51.1°F10.6°C 93% 11.5 mph SSW18.5 kmh SSW 12.7 mph20.4 kmh 29.78 in1008.5 mb - 0.00 in0.0 mm 0.07 in1.8 mm
08:50 AM 52.9°F11.6°C 51.0°F10.6°C 93% 10.4 mph SW16.7 kmh SW 11.5 mph18.5 kmh 29.78 in1008.5 mb - 0.00 in0.0 mm 0.07 in1.8 mm
08:40 AM 52.2°F11.2°C 50.3°F10.2°C 93% 6.9 mph SSW11.1 kmh SSW 9.2 mph14.8 kmh 29.77 in1008.1 mb - 0.00 in0.0 mm 0.07 in1.8 mm
08:30 AM 51.9°F11.1°C 49.9°F9.9°C 93% 8.1 mph SSW13.0 kmh SSW 17.3 mph27.8 kmh 29.77 in1008.1 mb - 0.00 in0.0 mm 0.07 in1.8 mm
08:20 AM 51.5°F10.8°C 49.6°F9.8°C 93% 8.1 mph SSW13.0 kmh SSW 12.7 mph20.4 kmh 29.77 in1008.1 mb - 0.00 in0.0 mm 0.07 in1.8 mm
08:10 AM 51.4°F10.8°C 49.5°F9.7°C 93% 9.2 mph SW14.8 kmh SW 11.5 mph18.5 kmh 29.77 in1008.1 mb - 0.00 in0.0 mm 0.07 in1.8 mm
08:00 AM 51.5°F10.8°C 49.5°F9.7°C 93% 10.4 mph SSW16.7 kmh SSW 13.8 mph22.2 kmh 29.77 in1008.1 mb - 0.00 in0.0 mm 0.07 in1.8 mm
07:50 AM 51.7°F10.9°C 49.7°F9.8°C 93% 10.4 mph SSW16.7 kmh SSW 12.7 mph20.4 kmh 29.76 in1007.8 mb - 0.00 in0.0 mm 0.07 in1.8 mm
07:40 AM 51.8°F11.0°C 49.8°F9.9°C 93% 12.7 mph SW20.4 kmh SW 19.6 mph31.5 kmh 29.76 in1007.8 mb - 0.01 in0.3 mm 0.07 in1.8 mm
07:30 AM 51.7°F10.9°C 49.7°F9.8°C 93% 11.5 mph SW18.5 kmh SW 20.7 mph33.3 kmh 29.76 in1007.8 mb - 0.00 in0.0 mm 0.06 in1.5 mm
07:20 AM 51.4°F10.8°C 49.4°F9.7°C 93% 10.4 mph S16.7 kmh S 13.8 mph22.2 kmh 29.76 in1007.8 mb - 0.00 in0.0 mm 0.06 in1.5 mm
07:10 AM 50.9°F10.5°C 48.9°F9.4°C 93% 9.2 mph SSW14.8 kmh SSW 16.1 mph25.9 kmh 29.76 in1007.8 mb - 0.00 in0.0 mm 0.06 in1.5 mm
07:00 AM 50.7°F10.4°C 48.7°F9.3°C 93% 8.1 mph SSW13.0 kmh SSW 13.8 mph22.2 kmh 29.76 in1007.8 mb - 0.00 in0.0 mm 0.06 in1.5 mm
06:50 AM 50.7°F10.4°C 48.7°F9.3°C 93% 6.9 mph SSW11.1 kmh SSW 8.1 mph13.0 kmh 29.77 in1008.1 mb - 0.00 in0.0 mm 0.06 in1.5 mm
06:40 AM 50.7°F10.4°C 48.7°F9.3°C 93% 8.1 mph SSW13.0 kmh SSW 11.5 mph18.5 kmh 29.77 in1008.1 mb - 0.00 in0.0 mm 0.06 in1.5 mm
06:30 AM 50.8°F10.4°C 48.8°F9.3°C 93% 4.6 mph S7.4 kmh S 5.8 mph9.3 kmh 29.75 in1007.5 mb - 0.00 in0.0 mm 0.06 in1.5 mm
06:20 AM 50.9°F10.5°C 48.9°F9.4°C 93% 5.8 mph SSW9.3 kmh SSW 6.9 mph11.1 kmh 29.75 in1007.5 mb - 0.00 in0.0 mm 0.06 in1.5 mm
06:10 AM 50.8°F10.4°C 48.8°F9.3°C 93% 5.8 mph SSW9.3 kmh SSW 8.1 mph13.0 kmh 29.75 in1007.5 mb - 0.01 in0.3 mm 0.06 in1.5 mm
06:00 AM 50.4°F10.2°C 48.4°F9.1°C 93% 5.8 mph SW9.3 kmh SW 8.1 mph13.0 kmh 29.75 in1007.5 mb - 0.01 in0.3 mm 0.05 in1.3 mm
05:50 AM 50.1°F10.1°C 48.2°F9.0°C 93% 5.8 mph S9.3 kmh S 6.9 mph11.1 kmh 29.74 in1007.1 mb - 0.01 in0.3 mm 0.04 in1.0 mm
05:40 AM 49.9°F9.9°C 48.0°F8.9°C 93% 5.8 mph SE9.3 kmh SE 8.1 mph13.0 kmh 29.73 in1006.8 mb - 0.00 in0.0 mm 0.03 in0.8 mm
05:30 AM 49.8°F9.9°C 47.6°F8.7°C 92% 5.8 mph SE9.3 kmh SE 10.4 mph16.7 kmh 29.73 in1006.8 mb - 0.02 in0.5 mm 0.03 in0.8 mm
05:20 AM 49.7°F9.8°C 47.8°F8.8°C 93% 5.8 mph SE9.3 kmh SE 9.2 mph14.8 kmh 29.75 in1007.5 mb - 0.00 in0.0 mm 0.01 in0.3 mm
05:10 AM 49.6°F9.8°C 47.7°F8.7°C 93% 4.6 mph S7.4 kmh S 4.6 mph7.4 kmh 29.76 in1007.8 mb - 0.00 in0.0 mm 0.01 in0.3 mm
05:00 AM 49.5°F9.7°C 47.6°F8.7°C 93% 3.5 mph SE5.6 kmh SE 4.6 mph7.4 kmh 29.75 in1007.5 mb - 0.00 in0.0 mm 0.01 in0.3 mm
04:50 AM 49.4°F9.7°C 47.5°F8.6°C 93% 3.5 mph SSE5.6 kmh SSE 5.8 mph9.3 kmh 29.75 in1007.5 mb - 0.00 in0.0 mm 0.01 in0.3 mm
04:40 AM 49.3°F9.6°C 47.4°F8.6°C 93% 2.3 mph SE3.7 kmh SE 6.9 mph11.1 kmh 29.74 in1007.1 mb - 0.00 in0.0 mm 0.01 in0.3 mm
04:30 AM 49.2°F9.6°C 47.3°F8.5°C 93% 3.5 mph ESE5.6 kmh ESE 3.5 mph5.6 kmh 29.74 in1007.1 mb - 0.00 in0.0 mm 0.01 in0.3 mm
04:20 AM 49.0°F9.4°C 46.8°F8.2°C 92% 5.8 mph SSE9.3 kmh SSE 8.1 mph13.0 kmh 29.75 in1007.5 mb - 0.00 in0.0 mm 0.01 in0.3 mm
04:10 AM 48.9°F9.4°C 46.7°F8.2°C 92% 5.8 mph SE9.3 kmh SE 6.9 mph11.1 kmh 29.75 in1007.5 mb - 0.00 in0.0 mm 0.01 in0.3 mm
04:00 AM 48.7°F9.3°C 46.8°F8.2°C 93% 4.6 mph SE7.4 kmh SE 8.1 mph13.0 kmh 29.74 in1007.1 mb - 0.00 in0.0 mm 0.01 in0.3 mm
03:50 AM 48.7°F9.3°C 46.8°F8.2°C 93% 4.6 mph ESE7.4 kmh ESE 6.9 mph11.1 kmh 29.74 in1007.1 mb - 0.00 in0.0 mm 0.01 in0.3 mm
03:40 AM 48.6°F9.2°C 46.7°F8.2°C 93% 3.5 mph ESE5.6 kmh ESE 5.8 mph9.3 kmh 29.74 in1007.1 mb - 0.01 in0.3 mm 0.01 in0.3 mm
03:30 AM 48.5°F9.2°C 46.6°F8.1°C 93% 5.8 mph ESE9.3 kmh ESE 11.5 mph18.5 kmh 29.74 in1007.1 mb - 0.00 in0.0 mm 0.00 in0.0 mm
03:20 AM 48.5°F9.2°C 46.3°F7.9°C 92% 8.1 mph ESE13.0 kmh ESE 12.7 mph20.4 kmh 29.73 in1006.8 mb - 0.00 in0.0 mm 0.00 in0.0 mm
03:10 AM 48.5°F9.2°C 46.3°F7.9°C 92% 6.9 mph E11.1 kmh E 11.5 mph18.5 kmh 29.73 in1006.8 mb - 0.00 in0.0 mm 0.00 in0.0 mm
03:00 AM 48.5°F9.2°C 46.3°F7.9°C 92% 4.6 mph ESE7.4 kmh ESE 6.9 mph11.1 kmh 29.74 in1007.1 mb - 0.00 in0.0 mm 0.00 in0.0 mm
02:50 AM 48.5°F9.2°C 46.3°F7.9°C 92% 5.8 mph ESE9.3 kmh ESE 9.2 mph14.8 kmh 29.75 in1007.5 mb - 0.00 in0.0 mm 0.00 in0.0 mm
02:40 AM 48.4°F9.1°C 46.2°F7.9°C 92% 5.8 mph E9.3 kmh E 6.9 mph11.1 kmh 29.75 in1007.5 mb - 0.00 in0.0 mm 0.00 in0.0 mm
02:30 AM 48.4°F9.1°C 46.1°F7.8°C 92% 5.8 mph E9.3 kmh E 9.2 mph14.8 kmh 29.75 in1007.5 mb - 0.00 in0.0 mm 0.00 in0.0 mm
02:20 AM 48.3°F9.1°C 46.1°F7.8°C 92% 6.9 mph ESE11.1 kmh ESE 11.5 mph18.5 kmh 29.75 in1007.5 mb - 0.00 in0.0 mm 0.00 in0.0 mm
02:10 AM 48.2°F9.0°C 46.0°F7.8°C 92% 4.6 mph SE7.4 kmh SE 8.1 mph13.0 kmh 29.76 in1007.8 mb - 0.00 in0.0 mm 0.00 in0.0 mm
02:00 AM 48.2°F9.0°C 46.0°F7.8°C 92% 4.6 mph E7.4 kmh E 5.8 mph9.3 kmh 29.75 in1007.5 mb - 0.00 in0.0 mm 0.00 in0.0 mm
01:50 AM 48.2°F9.0°C 46.0°F7.8°C 92% 6.9 mph E11.1 kmh E 8.1 mph13.0 kmh 29.76 in1007.8 mb - 0.00 in0.0 mm 0.00 in0.0 mm
01:40 AM 48.2°F9.0°C 46.0°F7.8°C 92% 2.3 mph E3.7 kmh E 4.6 mph7.4 kmh 29.77 in1008.1 mb - 0.00 in0.0 mm 0.00 in0.0 mm
01:30 AM 48.2°F9.0°C 46.0°F7.8°C 92% 4.6 mph E7.4 kmh E 6.9 mph11.1 kmh 29.77 in1008.1 mb - 0.00 in0.0 mm 0.00 in0.0 mm
01:20 AM 48.2°F9.0°C 46.0°F7.8°C 92% 4.6 mph E7.4 kmh E 6.9 mph11.1 kmh 29.78 in1008.5 mb - 0.00 in0.0 mm 0.00 in0.0 mm
01:10 AM 48.2°F9.0°C 46.0°F7.8°C 92% 3.5 mph E5.6 kmh E 5.8 mph9.3 kmh 29.79 in1008.8 mb - 0.00 in0.0 mm 0.00 in0.0 mm
01:00 AM 48.1°F8.9°C 45.9°F7.7°C 92% 4.6 mph E7.4 kmh E 5.8 mph9.3 kmh 29.80 in1009.1 mb - 0.00 in0.0 mm 0.00 in0.0 mm
12:50 AM 48.1°F8.9°C 45.9°F7.7°C 92% 3.5 mph E5.6 kmh E 6.9 mph11.1 kmh 29.79 in1008.8 mb - 0.00 in0.0 mm 0.00 in0.0 mm
12:40 AM 48.0°F8.9°C 45.8°F7.7°C 92% 2.3 mph E3.7 kmh E 3.5 mph5.6 kmh 29.80 in1009.1 mb - 0.00 in0.0 mm 0.00 in0.0 mm
12:30 AM 48.1°F8.9°C 45.9°F7.7°C 92% 1.2 mph E1.9 kmh E 2.3 mph3.7 kmh 29.81 in1009.5 mb - 0.00 in0.0 mm 0.00 in0.0 mm
12:20 AM 48.1°F8.9°C 45.9°F7.7°C 92% 2.3 mph E3.7 kmh E 4.6 mph7.4 kmh 29.80 in1009.1 mb - 0.00 in0.0 mm 0.00 in0.0 mm
12:10 AM 48.0°F8.9°C 45.8°F7.7°C 92% 3.5 mph ESE5.6 kmh ESE 5.8 mph9.3 kmh 29.80 in1009.1 mb - 0.00 in0.0 mm 0.00 in0.0 mm
12:00 AM 48.0°F8.9°C 45.8°F7.7°C 92% 3.5 mph ESE5.6 kmh ESE 5.8 mph9.3 kmh 29.80 in1009.1 mb - 0.00 in0.0 mm 0.00 in0.0 mm